Accueil
METAR-TAF:

METAR-TAF

Aéroports :

Renton Municipal Airport

Renton, Washington, États-Unis

latitude: 47-29-40N, longitude: 122-12-46W, altitude: 8 m

Observation

Le bulletin a été fait il y a 55 minutes, à 07:53 UTC
Vent 5 kt de direction variable
Température 16°C
Humidité 88%
Pression 1011 hPa
Visibilité: 16.1 km
Ciel couvert à une hauteur de 4900 ft

METAR: KRNT 220753Z AUTO VRB05KT 10SM OVC049 16/14 A2986 RMK AO2 RAE27 SLP115 P0000 T01610144 402330150

Heure: 01:48 (08:48 UTC)


TAF: absent

Observations et prévisions météorologiques de plus de 4000 aéroports (messages METAR et TAF).

Les stations disponibles sont représentées par des disques jaunes et rouges sur la carte.

Passer la souris dessus pour voir le nom de la station.

Cliquer dessus pour voir les observations et prévisions météorologiques.

Pour changer de carte: cliquez sur les boutons verts avec une croix noire pour zoomer, sur le bouton vert avec un tiret pour effectuer un zoom arrière, ou sur les flèches vertes pour les cartes adjacentes.


METAR-TAF: